Time;durP1;ratioP1;P1;durP2;ratioP2;P2;SDS_P1;SDS_P2;PMS_P1;PMS_P2;Temp;Humidity;BMP_temperature;BMP_pressure;BME280_temperature;BME280_humidity;BME280_pressure;Samples;Min_cycle;Max_cycle;Signal;HPM_P1;HPM_P2
2022/06/16 00:01:31;;;;;;;;;;;22.60;96.60;;;;;;5073341;28;19919;-54
2022/06/16 00:03:57;;;;;;;;;;;22.50;96.50;;;;;;5073602;28;19908;-53
2022/06/16 00:06:23;;;;;;;;;;;22.50;96.50;;;;;;5073566;28;19917;-53
2022/06/16 00:08:50;;;;;;;;;;;22.50;96.50;;;;;;5072824;28;20407;-55
2022/06/16 00:11:19;;;;;;;;;;;22.60;96.60;;;;;;5073504;28;19947;-53
2022/06/16 00:13:46;;;;;;;;;;;22.60;96.60;;;;;;5076839;28;19951;-53
2022/06/16 00:16:11;;;;;;;;;;;22.60;96.60;;;;;;5077425;28;19916;-53
2022/06/16 00:18:37;;;;;;;;;;;22.50;96.50;;;;;;5077091;28;19908;-54
2022/06/16 00:21:03;;;;;;;;;;;22.50;96.50;;;;;;5077154;28;19914;-53
2022/06/16 00:23:28;;;;;;;;;;;22.50;96.50;;;;;;5077058;28;19908;-54
2022/06/16 00:25:54;;;;;;;;;;;22.50;96.50;;;;;;5077286;28;19909;-51
2022/06/16 00:28:19;;;;;;;;;;;22.60;96.60;;;;;;5077133;28;19987;-54
2022/06/16 00:30:45;;;;;;;;;;;22.50;96.50;;;;;;5076757;28;20355;-55
2022/06/16 00:33:10;;;;;;;;;;;22.50;96.50;;;;;;5076981;28;19913;-54
2022/06/16 00:35:36;;;;;;;;;;;22.50;96.60;;;;;;5059069;28;20260;-54
2022/06/16 00:38:01;;;;;;;;;;;22.50;96.50;;;;;;5077029;28;19913;-53
2022/06/16 00:40:27;;;;;;;;;;;22.50;96.50;;;;;;5076975;28;19909;-54
2022/06/16 00:42:53;;;;;;;;;;;22.50;96.50;;;;;;5076607;28;19909;-55
2022/06/16 00:45:37;;;;;;;;;;;22.50;96.50;;;;;;5076747;28;19909;-55
2022/06/16 00:48:02;;;;;;;;;;;22.50;96.50;;;;;;5076500;28;19909;-51
2022/06/16 00:50:28;;;;;;;;;;;22.60;96.60;;;;;;5076781;28;19916;-53
2022/06/16 00:52:54;;;;;;;;;;;22.50;96.50;;;;;;5076469;28;19919;-55
2022/06/16 00:55:19;;;;;;;;;;;22.60;96.60;;;;;;5076589;28;19920;-53
2022/06/16 00:57:46;;;;;;;;;;;22.50;96.50;;;;;;5076434;28;19966;-54
2022/06/16 01:00:20;;;;;;;;;;;22.60;96.60;;;;;;5076319;28;19912;-54
2022/06/16 01:02:45;;;;;;;;;;;22.60;96.60;;;;;;5076625;28;19940;-53
2022/06/16 01:05:11;;;;;;;;;;;22.50;96.50;;;;;;5076287;28;19919;-54
2022/06/16 01:07:40;;;;;;;;;;;22.50;96.50;;;;;;5076504;28;19915;-54
2022/06/16 01:10:06;;;;;;;;;;;22.50;96.50;;;;;;5058423;28;20414;-55
2022/06/16 01:15:34;;;;;;;;;;;22.60;96.60;;;;;;5076157;28;19916;-55
2022/06/16 01:18:00;;;;;;;;;;;22.60;96.60;;;;;;5076045;28;19909;-55
2022/06/16 01:20:41;;;;;;;;;;;22.60;96.60;;;;;;5075989;28;19916;-54
2022/06/16 01:23:09;;;;;;;;;;;22.50;96.50;;;;;;5075373;28;19913;-55
2022/06/16 01:25:40;;;;;;;;;;;22.50;96.50;;;;;;5075368;28;19916;-54
2022/06/16 01:28:12;;;;;;;;;;;22.50;96.50;;;;;;5075871;28;20363;-52
2022/06/16 01:30:52;;;;;;;;;;;22.60;96.60;;;;;;5076526;28;19916;-54
2022/06/16 01:33:47;;;;;;;;;;;22.50;96.50;;;;;;5076027;28;19917;-54
2022/06/16 01:36:15;;;;;;;;;;;22.60;96.60;;;;;;5054021;28;19909;-52
2022/06/16 01:38:47;;;;;;;;;;;22.50;96.50;;;;;;5075654;28;19942;-54
2022/06/16 01:41:33;;;;;;;;;;;22.50;96.50;;;;;;5075936;28;19908;-54
2022/06/16 01:44:08;;;;;;;;;;;22.60;96.60;;;;;;5075352;28;19957;-53
2022/06/16 01:46:35;;;;;;;;;;;22.60;96.60;;;;;;5075572;28;19909;-53
2022/06/16 01:49:03;;;;;;;;;;;22.50;96.50;;;;;;5075409;28;19915;-55
2022/06/16 01:51:34;;;;;;;;;;;22.60;96.60;;;;;;5075379;28;19973;-55
2022/06/16 01:54:08;;;;;;;;;;;22.50;96.50;;;;;;5075282;28;19924;-54
2022/06/16 01:56:33;;;;;;;;;;;22.50;96.50;;;;;;5075625;28;19920;-52
2022/06/16 01:59:04;;;;;;;;;;;22.50;96.50;;;;;;5075229;28;19908;-55
2022/06/16 02:01:35;;;;;;;;;;;22.60;96.60;;;;;;5075196;28;19908;-54
2022/06/16 02:04:06;;;;;;;;;;;22.50;96.50;;;;;;5057708;28;19948;-55
2022/06/16 02:06:34;;;;;;;;;;;22.60;96.60;;;;;;5075320;28;20005;-53
2022/06/16 02:09:06;;;;;;;;;;;22.50;96.50;;;;;;5075362;28;19912;-54
2022/06/16 02:11:32;;;;;;;;;;;22.60;96.60;;;;;;5075139;28;20004;-55
2022/06/16 02:14:20;;;;;;;;;;;22.60;96.60;;;;;;5074857;28;20362;-55
2022/06/16 02:16:47;;;;;;;;;;;22.50;96.50;;;;;;5075226;28;19954;-53
2022/06/16 02:19:14;;;;;;;;;;;22.50;96.50;;;;;;5075160;28;19931;-53
2022/06/16 02:21:42;;;;;;;;;;;22.60;96.50;;;;;;5074735;28;19909;-52
2022/06/16 02:24:08;;;;;;;;;;;22.60;96.60;;;;;;5075096;28;19908;-55
2022/06/16 02:26:34;;;;;;;;;;;22.50;96.50;;;;;;5074664;28;19987;-51
2022/06/16 02:29:02;;;;;;;;;;;22.60;96.60;;;;;;5074987;28;19947;-53
2022/06/16 02:31:37;;;;;;;;;;;22.50;96.50;;;;;;5074893;28;19908;-52
2022/06/16 02:34:02;;;;;;;;;;;22.60;96.60;;;;;;5074992;28;20019;-54
2022/06/16 02:36:38;;;;;;;;;;;22.60;96.60;;;;;;5074125;28;19959;-54
2022/06/16 02:39:15;;;;;;;;;;;22.60;96.60;;;;;;5074896;28;19913;-52
2022/06/16 02:41:51;;;;;;;;;;;22.50;96.50;;;;;;5074452;28;19909;-55
2022/06/16 02:44:19;;;;;;;;;;;22.60;96.60;;;;;;5074334;28;19914;-53
2022/06/16 02:47:03;;;;;;;;;;;22.60;96.60;;;;;;5056619;28;19912;-51
2022/06/16 02:49:44;;;;;;;;;;;22.50;96.50;;;;;;5056578;28;19916;-55
2022/06/16 02:52:09;;;;;;;;;;;22.60;96.50;;;;;;5074171;28;19908;-52
2022/06/16 02:54:43;;;;;;;;;;;22.60;96.60;;;;;;5074232;28;20279;-53
2022/06/16 02:57:26;;;;;;;;;;;22.50;96.80;;;;;;5074459;28;20244;-53
2022/06/16 02:59:58;;;;;;;;;;;22.50;96.50;;;;;;5056516;28;19916;-53
2022/06/16 03:02:24;;;;;;;;;;;22.60;96.50;;;;;;5056408;28;19969;-54
2022/06/16 03:04:51;;;;;;;;;;;22.50;96.50;;;;;;5074021;28;19915;-55
2022/06/16 03:07:17;;;;;;;;;;;22.50;96.50;;;;;;5074296;28;20041;-53
2022/06/16 03:09:42;;;;;;;;;;;22.60;96.50;;;;;;5073952;28;20040;-52
2022/06/16 03:12:09;;;;;;;;;;;22.50;96.50;;;;;;5074131;28;19953;-53
2022/06/16 03:14:35;;;;;;;;;;;22.50;96.50;;;;;;5056164;28;19909;-53
2022/06/16 03:17:02;;;;;;;;;;;22.50;96.50;;;;;;5074210;28;19993;-52
2022/06/16 03:19:27;;;;;;;;;;;22.50;96.50;;;;;;5074153;28;19931;-52
2022/06/16 03:21:54;;;;;;;;;;;22.50;96.50;;;;;;5074117;28;20286;-55
2022/06/16 03:24:20;;;;;;;;;;;22.50;96.50;;;;;;5073987;28;19909;-53
2022/06/16 03:26:45;;;;;;;;;;;22.50;96.50;;;;;;5074011;28;19931;-54
2022/06/16 03:29:11;;;;;;;;;;;22.50;96.50;;;;;;5074027;28;19912;-54
2022/06/16 03:31:37;;;;;;;;;;;22.60;96.50;;;;;;5073998;28;19919;-54
2022/06/16 03:34:02;;;;;;;;;;;22.50;96.50;;;;;;5073687;28;19985;-54
2022/06/16 03:36:28;;;;;;;;;;;22.60;96.60;;;;;;5073889;28;20386;-52
2022/06/16 03:38:53;;;;;;;;;;;22.60;96.50;;;;;;5055892;28;20485;-54
2022/06/16 03:41:19;;;;;;;;;;;22.60;96.50;;;;;;5073595;28;19999;-52
2022/06/16 03:43:44;;;;;;;;;;;22.60;96.50;;;;;;5073852;28;19908;-53
2022/06/16 03:46:11;;;;;;;;;;;22.60;96.80;;;;;;5073632;28;19912;-53
2022/06/16 03:48:37;;;;;;;;;;;22.60;96.50;;;;;;5077097;28;19916;-51
2022/06/16 03:51:05;;;;;;;;;;;22.60;96.50;;;;;;5077615;28;19908;-55
2022/06/16 03:53:31;;;;;;;;;;;22.60;96.50;;;;;;5077757;28;19916;-55
2022/06/16 03:55:57;;;;;;;;;;;22.60;96.50;;;;;;5059912;28;19927;-51
2022/06/16 03:58:22;;;;;;;;;;;22.60;96.50;;;;;;5077522;28;19999;-55
2022/06/16 04:00:48;;;;;;;;;;;22.60;96.50;;;;;;5077570;28;19909;-54
2022/06/16 04:05:57;;;;;;;;;;;22.60;96.50;;;;;;5077494;28;20039;-52
2022/06/16 04:08:23;;;;;;;;;;;22.60;96.50;;;;;;5077674;28;20334;-54
2022/06/16 04:10:48;;;;;;;;;;;22.60;96.50;;;;;;5077637;28;20314;-52
2022/06/16 04:13:14;;;;;;;;;;;22.70;96.50;;;;;;5077384;28;19923;-53
2022/06/16 04:15:40;;;;;;;;;;;22.60;96.40;;;;;;5077410;28;19999;-54
2022/06/16 04:18:05;;;;;;;;;;;22.70;96.50;;;;;;5077382;28;19931;-53
2022/06/16 04:20:31;;;;;;;;;;;22.60;96.50;;;;;;5077468;28;19970;-54
2022/06/16 04:22:57;;;;;;;;;;;22.60;96.50;;;;;;5077085;28;19915;-53
2022/06/16 04:25:30;;;;;;;;;;;22.60;96.50;;;;;;5077301;28;20329;-53
2022/06/16 04:28:06;;;;;;;;;;;22.60;96.50;;;;;;5077270;28;19940;-53
2022/06/16 04:30:32;;;;;;;;;;;22.60;96.50;;;;;;5077349;28;19912;-53
2022/06/16 04:32:58;;;;;;;;;;;22.60;96.50;;;;;;5076795;28;20007;-53
2022/06/16 04:35:24;;;;;;;;;;;22.60;96.50;;;;;;5077442;28;19909;-55
2022/06/16 04:37:50;;;;;;;;;;;22.60;96.50;;;;;;5077063;28;19916;-54
2022/06/16 04:40:15;;;;;;;;;;;22.60;96.50;;;;;;5059120;28;20340;-55
2022/06/16 04:42:41;;;;;;;;;;;22.60;96.50;;;;;;5076983;28;19912;-54
2022/06/16 04:45:07;;;;;;;;;;;22.60;96.50;;;;;;5076910;28;19931;-56
2022/06/16 04:47:32;;;;;;;;;;;22.60;96.50;;;;;;5076562;28;19985;-54
2022/06/16 04:49:58;;;;;;;;;;;22.60;96.50;;;;;;5058890;28;19908;-54
2022/06/16 04:52:23;;;;;;;;;;;22.60;96.50;;;;;;5076734;28;19908;-53
2022/06/16 04:54:49;;;;;;;;;;;22.70;96.50;;;;;;5076436;28;19929;-53
2022/06/16 04:57:15;;;;;;;;;;;22.60;96.50;;;;;;5076430;28;20291;-53
2022/06/16 04:59:41;;;;;;;;;;;22.60;96.50;;;;;;5076423;28;20252;-52
2022/06/16 05:02:07;;;;;;;;;;;22.70;96.50;;;;;;5076506;28;19908;-51
2022/06/16 05:04:33;;;;;;;;;;;22.70;96.50;;;;;;5076916;28;20430;-54
2022/06/16 05:06:58;;;;;;;;;;;22.60;96.50;;;;;;5076487;28;19920;-53
2022/06/16 05:09:24;;;;;;;;;;;22.70;96.50;;;;;;5076414;28;20240;-54
2022/06/16 05:11:50;;;;;;;;;;;22.70;96.50;;;;;;5076801;28;20089;-53
2022/06/16 05:14:15;;;;;;;;;;;22.70;96.50;;;;;;5058372;28;19920;-54
2022/06/16 05:16:41;;;;;;;;;;;22.70;96.50;;;;;;5076020;28;20386;-56
2022/06/16 05:19:06;;;;;;;;;;;22.70;96.50;;;;;;5076562;28;19920;-53
2022/06/16 05:21:32;;;;;;;;;;;22.70;96.50;;;;;;5076125;28;20308;-51
2022/06/16 05:23:57;;;;;;;;;;;22.70;96.50;;;;;;5058238;28;19915;-53
2022/06/16 05:26:23;;;;;;;;;;;22.70;96.50;;;;;;5076052;28;19908;-55
2022/06/16 05:28:48;;;;;;;;;;;22.70;96.50;;;;;;5076128;28;20347;-54
2022/06/16 05:31:14;;;;;;;;;;;22.70;96.50;;;;;;5075815;28;19915;-55
2022/06/16 05:33:39;;;;;;;;;;;22.70;96.50;;;;;;5075537;28;20368;-54
2022/06/16 05:36:09;;;;;;;;;;;22.70;96.50;;;;;;5075503;28;19908;-54
2022/06/16 05:38:35;;;;;;;;;;;22.70;96.50;;;;;;5075920;28;19954;-55
2022/06/16 05:41:02;;;;;;;;;;;22.70;96.50;;;;;;5075746;28;19912;-54
2022/06/16 05:43:27;;;;;;;;;;;22.70;96.50;;;;;;5075436;28;20356;-52
2022/06/16 05:45:53;;;;;;;;;;;22.70;96.50;;;;;;5075817;28;19954;-51
2022/06/16 05:48:19;;;;;;;;;;;22.70;96.50;;;;;;5075435;28;20286;-55
2022/06/16 05:50:44;;;;;;;;;;;22.70;96.50;;;;;;5075347;28;19961;-53
2022/06/16 05:53:10;;;;;;;;;;;22.70;96.50;;;;;;5075099;28;19916;-55
2022/06/16 05:55:36;;;;;;;;;;;22.70;96.50;;;;;;5074997;28;19921;-52
2022/06/16 05:58:01;;;;;;;;;;;22.70;96.50;;;;;;5075410;28;19971;-55
2022/06/16 06:00:27;;;;;;;;;;;22.70;96.50;;;;;;5075065;28;19916;-55
2022/06/16 06:02:55;;;;;;;;;;;22.70;96.50;;;;;;5075196;28;19985;-54
2022/06/16 06:05:21;;;;;;;;;;;22.70;96.50;;;;;;5074882;28;20341;-55
2022/06/16 06:18:43;;;;;;;;;;;22.70;96.50;;;;;;5074893;28;19968;-54
2022/06/16 06:21:09;;;;;;;;;;;22.70;96.50;;;;;;5074712;28;20003;-54
2022/06/16 06:23:34;;;;;;;;;;;22.70;96.50;;;;;;5057005;28;20240;-54
2022/06/16 06:26:00;;;;;;;;;;;22.70;96.50;;;;;;5074720;28;19908;-55
2022/06/16 06:28:25;;;;;;;;;;;22.70;96.50;;;;;;5074881;28;19916;-53
2022/06/16 06:30:50;;;;;;;;;;;22.70;96.50;;;;;;5074319;28;19908;-55
2022/06/16 06:33:16;;;;;;;;;;;22.80;96.50;;;;;;5074581;28;20317;-54
2022/06/16 06:35:42;;;;;;;;;;;22.80;96.50;;;;;;5074346;28;19918;-54
2022/06/16 06:38:07;;;;;;;;;;;22.80;96.50;;;;;;5074773;28;20469;-54
2022/06/16 06:40:34;;;;;;;;;;;22.80;96.50;;;;;;5056699;28;20224;-56
2022/06/16 06:43:00;;;;;;;;;;;22.80;96.50;;;;;;5074387;28;19908;-55
2022/06/16 06:45:26;;;;;;;;;;;22.70;96.50;;;;;;5074270;28;20252;-55
2022/06/16 06:47:52;;;;;;;;;;;22.80;96.50;;;;;;5074219;28;20224;-54
2022/06/16 06:50:25;;;;;;;;;;;22.80;96.50;;;;;;5074448;28;19909;-54
2022/06/16 06:52:51;;;;;;;;;;;22.80;96.80;;;;;;5056012;28;19966;-56
2022/06/16 06:55:18;;;;;;;;;;;22.80;96.50;;;;;;5055973;28;19921;-54
2022/06/16 06:57:44;;;;;;;;;;;22.80;96.50;;;;;;5074074;28;19908;-55
2022/06/16 07:00:11;;;;;;;;;;;22.80;96.50;;;;;;5074111;28;20460;-56
2022/06/16 07:02:37;;;;;;;;;;;22.80;96.50;;;;;;5074660;28;19909;-55
2022/06/16 07:05:03;;;;;;;;;;;22.80;96.50;;;;;;5073954;28;19916;-53
2022/06/16 07:07:28;;;;;;;;;;;22.80;96.50;;;;;;5073903;28;19915;-55
2022/06/16 07:09:54;;;;;;;;;;;22.80;96.50;;;;;;5073785;28;19909;-53
2022/06/16 07:12:20;;;;;;;;;;;22.80;96.50;;;;;;5074112;28;19962;-54
2022/06/16 07:14:47;;;;;;;;;;;22.80;96.50;;;;;;5074059;28;19909;-56
2022/06/16 07:17:13;;;;;;;;;;;22.80;96.50;;;;;;5074041;28;19919;-55
2022/06/16 07:19:39;;;;;;;;;;;22.80;96.50;;;;;;5074306;28;19954;-53
2022/06/16 07:22:05;;;;;;;;;;;22.80;96.50;;;;;;5073868;28;19908;-54
2022/06/16 07:24:31;;;;;;;;;;;22.80;96.50;;;;;;5074163;28;20382;-55
2022/06/16 07:26:57;;;;;;;;;;;22.80;96.50;;;;;;5073684;28;19908;-54
2022/06/16 07:29:22;;;;;;;;;;;22.80;96.50;;;;;;5073980;28;19909;-54
2022/06/16 07:31:48;;;;;;;;;;;22.80;96.50;;;;;;5074086;28;19909;-55
2022/06/16 07:34:15;;;;;;;;;;;22.80;96.50;;;;;;5073898;28;20248;-55
2022/06/16 07:36:40;;;;;;;;;;;22.80;96.60;;;;;;5073498;28;19962;-56
2022/06/16 07:39:06;;;;;;;;;;;22.80;96.60;;;;;;5073629;28;19908;-55
2022/06/16 07:41:31;;;;;;;;;;;22.80;96.60;;;;;;5073801;28;19916;-52
2022/06/16 07:43:57;;;;;;;;;;;22.80;96.50;;;;;;5073784;28;19909;-55
2022/06/16 07:46:24;;;;;;;;;;;22.80;96.60;;;;;;5073522;28;20385;-55
2022/06/16 07:48:51;;;;;;;;;;;22.70;96.50;;;;;;5073760;28;19909;-56
2022/06/16 07:51:17;;;;;;;;;;;22.70;96.50;;;;;;5073981;28;20298;-54
2022/06/16 07:53:42;;;;;;;;;;;22.80;96.50;;;;;;5073544;28;19920;-56
2022/06/16 07:56:08;;;;;;;;;;;22.80;96.50;;;;;;5073738;28;19991;-54
2022/06/16 07:58:33;;;;;;;;;;;22.80;96.50;;;;;;5055736;28;20260;-53
2022/06/16 08:00:59;;;;;;;;;;;22.80;96.50;;;;;;5073594;28;19954;-54
2022/06/16 08:03:27;;;;;;;;;;;22.80;96.50;;;;;;5073934;28;19916;-53
2022/06/16 08:05:53;;;;;;;;;;;22.80;96.50;;;;;;5073912;28;19953;-51
2022/06/16 08:08:22;;;;;;;;;;;22.80;96.50;;;;;;5073143;28;19916;-51
2022/06/16 08:10:47;;;;;;;;;;;22.80;96.50;;;;;;5073144;28;19909;-55
2022/06/16 08:13:13;;;;;;;;;;;22.80;96.50;;;;;;5073417;28;19920;-52
2022/06/16 08:15:39;;;;;;;;;;;22.80;96.50;;;;;;5073554;28;19913;-56
2022/06/16 08:18:06;;;;;;;;;;;22.80;96.50;;;;;;5073397;28;19915;-55
2022/06/16 08:20:32;;;;;;;;;;;22.80;96.60;;;;;;5073464;28;19923;-54
2022/06/16 08:22:57;;;;;;;;;;;22.80;96.80;;;;;;5073079;28;19908;-56
2022/06/16 08:25:25;;;;;;;;;;;22.80;96.60;;;;;;5073698;28;19915;-53
2022/06/16 08:27:52;;;;;;;;;;;22.80;96.60;;;;;;5073347;28;20391;-55
2022/06/16 08:30:18;;;;;;;;;;;22.80;96.60;;;;;;5073335;28;19908;-54
2022/06/16 08:32:43;;;;;;;;;;;22.80;96.60;;;;;;5073307;28;19917;-58
2022/06/16 08:35:09;;;;;;;;;;;22.80;96.60;;;;;;5059150;28;19953;-56
2022/06/16 08:37:35;;;;;;;;;;;22.80;96.60;;;;;;5076745;28;19909;-54
2022/06/16 08:40:00;;;;;;;;;;;22.80;96.60;;;;;;5076604;28;19927;-54
2022/06/16 08:42:40;;;;;;;;;;;22.80;96.60;;;;;;5076847;28;20347;-56
2022/06/16 08:45:12;;;;;;;;;;;22.80;96.60;;;;;;5076903;28;19909;-54
2022/06/16 08:47:39;;;;;;;;;;;22.80;96.60;;;;;;5077031;28;20252;-52
2022/06/16 08:50:06;;;;;;;;;;;22.80;96.60;;;;;;5058911;28;19908;-54
2022/06/16 08:52:31;;;;;;;;;;;22.80;96.60;;;;;;5076792;28;19916;-51
2022/06/16 08:54:57;;;;;;;;;;;22.80;96.60;;;;;;5076644;28;19921;-55
2022/06/16 08:57:33;;;;;;;;;;;22.80;96.60;;;;;;5076735;28;19908;-52
2022/06/16 09:00:04;;;;;;;;;;;22.80;96.60;;;;;;5076312;28;19962;-52
2022/06/16 09:02:45;;;;;;;;;;;22.90;96.60;;;;;;5076246;28;19913;-53
2022/06/16 09:05:10;;;;;;;;;;;22.90;96.60;;;;;;5076872;28;19909;-53
2022/06/16 09:07:39;;;;;;;;;;;22.90;96.60;;;;;;5076501;28;19961;-54
2022/06/16 09:10:16;;;;;;;;;;;22.90;96.60;;;;;;5075800;28;19908;-55
2022/06/16 09:12:42;;;;;;;;;;;22.90;96.70;;;;;;5058342;28;19924;-54
2022/06/16 09:15:14;;;;;;;;;;;22.90;96.70;;;;;;5076110;28;20029;-55
2022/06/16 09:17:58;;;;;;;;;;;22.90;96.70;;;;;;5058192;28;20365;-54
2022/06/16 09:20:27;;;;;;;;;;;22.90;96.70;;;;;;5076177;28;19909;-54
2022/06/16 09:23:15;;;;;;;;;;;22.80;96.70;;;;;;5075976;28;19913;-53
2022/06/16 09:26:00;;;;;;;;;;;22.80;96.80;;;;;;5062412;28;19916;-55
2022/06/16 09:28:31;;;;;;;;;;;22.90;96.80;;;;;;5075636;28;19908;-54
2022/06/16 09:31:00;;;;;;;;;;;22.90;96.90;;;;;;5075834;28;19908;-54
2022/06/16 09:33:37;;;;;;;;;;;22.90;96.80;;;;;;5075993;28;20003;-55
2022/06/16 09:36:05;;;;;;;;;;;22.80;96.80;;;;;;5075877;28;19951;-56
2022/06/16 09:38:39;;;;;;;;;;;22.90;96.80;;;;;;5075999;28;19913;-53
2022/06/16 09:42:32;;;;;;;;;;;22.90;96.80;;;;;;5075827;28;19908;-54
2022/06/16 09:43:53;;;;;;;;;;;22.90;96.80;;;;;;5075177;28;20355;-53
2022/06/16 09:46:27;;;;;;;;;;;22.90;96.80;;;;;;5074709;28;19957;-54
2022/06/16 09:48:59;;;;;;;;;;;22.90;96.90;;;;;;5075796;28;19957;-56
2022/06/16 09:51:29;;;;;;;;;;;22.90;96.80;;;;;;5075717;28;19915;-54
2022/06/16 09:53:57;;;;;;;;;;;22.90;96.90;;;;;;5075570;28;19923;-54
2022/06/16 09:56:31;;;;;;;;;;;22.90;96.90;;;;;;5075681;28;20266;-55
2022/06/16 09:58:57;;;;;;;;;;;22.90;96.90;;;;;;5075630;28;19915;-54
2022/06/16 10:01:24;;;;;;;;;;;22.90;96.90;;;;;;5057652;28;19909;-54
2022/06/16 10:03:53;;;;;;;;;;;22.90;96.90;;;;;;5057604;28;20337;-56
2022/06/16 10:06:29;;;;;;;;;;;22.90;96.90;;;;;;5075048;28;19908;-55
2022/06/16 10:09:03;;;;;;;;;;;22.90;96.90;;;;;;5075035;28;19909;-54
2022/06/16 10:11:47;;;;;;;;;;;22.90;96.90;;;;;;5075327;28;19909;-53
2022/06/16 10:14:25;;;;;;;;;;;22.90;96.90;;;;;;5075272;28;19970;-55
2022/06/16 10:16:55;;;;;;;;;;;22.90;96.90;;;;;;5075145;28;19908;-56
2022/06/16 10:19:25;;;;;;;;;;;22.90;96.90;;;;;;5075173;28;19909;-55
2022/06/16 10:21:50;;;;;;;;;;;22.90;96.90;;;;;;5075059;28;19908;-55
2022/06/16 10:24:17;;;;;;;;;;;22.90;96.90;;;;;;5074995;28;19919;-54
2022/06/16 10:26:43;;;;;;;;;;;22.90;96.90;;;;;;5075129;28;19916;-54
2022/06/16 10:29:11;;;;;;;;;;;22.90;97.00;;;;;;5074815;28;20266;-52
2022/06/16 10:31:43;;;;;;;;;;;22.90;96.90;;;;;;5056851;28;20335;-53
2022/06/16 10:34:19;;;;;;;;;;;22.90;96.90;;;;;;5074393;28;19924;-55
2022/06/16 10:36:49;;;;;;;;;;;22.90;96.90;;;;;;5074445;28;19943;-55
2022/06/16 10:39:14;;;;;;;;;;;22.90;96.90;;;;;;5074668;28;19955;-55
2022/06/16 10:41:41;;;;;;;;;;;22.90;96.90;;;;;;5074238;28;19943;-56
2022/06/16 10:44:14;;;;;;;;;;;22.90;96.90;;;;;;5074587;28;20062;-54
2022/06/16 10:46:45;;;;;;;;;;;23.00;96.90;;;;;;5074785;28;20003;-55
2022/06/16 10:49:20;;;;;;;;;;;22.90;96.90;;;;;;5074611;28;19962;-54
2022/06/16 10:51:54;;;;;;;;;;;22.90;96.90;;;;;;5074053;28;20359;-53
2022/06/16 10:54:25;;;;;;;;;;;22.90;96.90;;;;;;5073973;28;19959;-52
2022/06/16 10:57:02;;;;;;;;;;;22.90;96.90;;;;;;5074250;28;19909;-52
2022/06/16 10:59:28;;;;;;;;;;;22.90;96.90;;;;;;5074339;28;19909;-54
2022/06/16 11:01:56;;;;;;;;;;;22.90;96.90;;;;;;5073991;28;19908;-55
2022/06/16 11:04:23;;;;;;;;;;;23.00;96.90;;;;;;5074021;28;20391;-54
2022/06/16 11:06:53;;;;;;;;;;;23.00;96.90;;;;;;5073806;28;19969;-55
2022/06/16 11:09:20;;;;;;;;;;;22.90;97.00;;;;;;5073968;28;19908;-53
2022/06/16 11:11:52;;;;;;;;;;;23.00;97.00;;;;;;5074057;28;19908;-55
2022/06/16 11:14:34;;;;;;;;;;;22.90;96.90;;;;;;5074133;28;19913;-53
2022/06/16 11:17:01;;;;;;;;;;;23.00;97.00;;;;;;5073772;28;19912;-51
2022/06/16 11:19:26;;;;;;;;;;;23.00;97.20;;;;;;5073785;28;19909;-54
2022/06/16 11:21:52;;;;;;;;;;;23.00;96.90;;;;;;5074154;28;20011;-55
2022/06/16 11:24:26;;;;;;;;;;;23.00;96.90;;;;;;5074294;28;19916;-55
2022/06/16 11:26:53;;;;;;;;;;;23.00;97.00;;;;;;5055886;28;19919;-54
2022/06/16 11:29:22;;;;;;;;;;;23.00;97.20;;;;;;5073831;28;19909;-51
2022/06/16 11:31:50;;;;;;;;;;;23.00;97.00;;;;;;5055792;28;20016;-53
2022/06/16 11:34:18;;;;;;;;;;;23.00;97.00;;;;;;5073793;28;19920;-56
2022/06/16 11:36:58;;;;;;;;;;;23.00;97.00;;;;;;5073999;28;20007;-53
2022/06/16 11:39:36;;;;;;;;;;;23.00;97.00;;;;;;5073847;28;19916;-54
2022/06/16 11:42:02;;;;;;;;;;;23.00;97.00;;;;;;5073989;28;19912;-53
2022/06/16 11:44:36;;;;;;;;;;;23.00;97.00;;;;;;5073700;28;19998;-53
2022/06/16 11:47:04;;;;;;;;;;;23.00;97.00;;;;;;5073517;28;20271;-54
2022/06/16 11:49:39;;;;;;;;;;;23.00;97.00;;;;;;5073592;28;19908;-52
2022/06/16 11:52:07;;;;;;;;;;;23.00;97.00;;;;;;5073602;28;20275;-52
2022/06/16 11:54:51;;;;;;;;;;;23.00;97.00;;;;;;5073203;28;19921;-53
2022/06/16 11:57:19;;;;;;;;;;;23.00;97.00;;;;;;5073380;28;19962;-55
2022/06/16 11:59:45;;;;;;;;;;;23.00;97.00;;;;;;5073300;28;19908;-55
2022/06/16 12:02:22;;;;;;;;;;;23.00;97.00;;;;;;5073196;28;19909;-53
2022/06/16 12:05:01;;;;;;;;;;;23.00;97.00;;;;;;5073416;28;19915;-50
2022/06/16 12:07:36;;;;;;;;;;;23.00;97.00;;;;;;5073751;28;19951;-55
2022/06/16 12:10:20;;;;;;;;;;;23.00;96.90;;;;;;5077243;28;19909;-52
2022/06/16 12:13:03;;;;;;;;;;;23.00;96.90;;;;;;5077367;28;19912;-54
2022/06/16 12:15:42;;;;;;;;;;;23.00;96.90;;;;;;5059437;28;19919;-54
2022/06/16 12:18:16;;;;;;;;;;;23.00;96.90;;;;;;5077109;28;19915;-54
2022/06/16 12:21:02;;;;;;;;;;;23.00;96.90;;;;;;5077342;28;19997;-52
2022/06/16 12:23:39;;;;;;;;;;;23.00;96.90;;;;;;5076959;28;19962;-50
2022/06/16 12:26:15;;;;;;;;;;;23.00;96.90;;;;;;5059023;28;19936;-54
2022/06/16 12:29:01;;;;;;;;;;;23.00;97.00;;;;;;5076916;28;19947;-55
2022/06/16 12:31:27;;;;;;;;;;;23.00;97.00;;;;;;5075991;28;20078;-55
2022/06/16 12:34:00;;;;;;;;;;;23.00;96.90;;;;;;5076763;28;20467;-55
2022/06/16 12:36:27;;;;;;;;;;;23.00;97.00;;;;;;5077128;28;19919;-54
2022/06/16 12:39:01;;;;;;;;;;;23.00;97.00;;;;;;5076916;28;20279;-54
2022/06/16 12:41:30;;;;;;;;;;;23.00;96.90;;;;;;5076715;28;19908;-54
2022/06/16 12:43:58;;;;;;;;;;;23.00;97.00;;;;;;5076796;28;20267;-54
2022/06/16 12:46:28;;;;;;;;;;;23.00;96.90;;;;;;5076279;28;19908;-54
2022/06/16 12:48:54;;;;;;;;;;;23.00;96.90;;;;;;5077076;28;20359;-55
2022/06/16 12:51:21;;;;;;;;;;;23.10;97.00;;;;;;5076308;28;20401;-56
2022/06/16 12:53:51;;;;;;;;;;;23.00;97.00;;;;;;5076375;28;19913;-53
2022/06/16 12:56:17;;;;;;;;;;;23.00;96.90;;;;;;5076730;28;20011;-53
2022/06/16 12:58:49;;;;;;;;;;;23.00;97.00;;;;;;5076326;28;19940;-53
2022/06/16 13:01:14;;;;;;;;;;;23.00;96.90;;;;;;5076563;28;20256;-55
2022/06/16 13:03:59;;;;;;;;;;;23.00;97.00;;;;;;5076361;28;19916;-55
2022/06/16 13:06:25;;;;;;;;;;;23.00;96.90;;;;;;5076498;28;19962;-51
2022/06/16 13:08:53;;;;;;;;;;;23.10;97.00;;;;;;5076647;28;19909;-55
2022/06/16 13:11:21;;;;;;;;;;;23.00;97.00;;;;;;5076149;28;19908;-52
2022/06/16 13:13:53;;;;;;;;;;;23.10;96.90;;;;;;5076397;28;19916;-51
2022/06/16 13:16:23;;;;;;;;;;;23.10;97.00;;;;;;5076051;28;20256;-56
2022/06/16 13:18:59;;;;;;;;;;;23.10;96.90;;;;;;5075757;28;19909;-54
2022/06/16 13:21:35;;;;;;;;;;;23.10;97.00;;;;;;5075810;28;20374;-55
2022/06/16 13:24:10;;;;;;;;;;;23.10;96.90;;;;;;5075820;28;19908;-54
2022/06/16 13:26:40;;;;;;;;;;;23.10;96.90;;;;;;5075939;28;19940;-54
2022/06/16 13:29:05;;;;;;;;;;;23.10;96.90;;;;;;5058001;28;19912;-54
2022/06/16 13:31:42;;;;;;;;;;;23.10;96.90;;;;;;5076196;28;20348;-53
2022/06/16 13:34:08;;;;;;;;;;;23.10;96.80;;;;;;5075919;28;19917;-55
2022/06/16 13:36:33;;;;;;;;;;;23.10;96.90;;;;;;5058000;28;19909;-57
2022/06/16 13:39:00;;;;;;;;;;;23.10;96.80;;;;;;5076259;28;19909;-51
2022/06/16 13:41:40;;;;;;;;;;;23.10;96.90;;;;;;5057760;28;20361;-55
2022/06/16 13:44:20;;;;;;;;;;;23.10;96.90;;;;;;5075389;28;20361;-55
2022/06/16 13:47:09;;;;;;;;;;;23.10;96.90;;;;;;5075874;28;19931;-55
2022/06/16 13:49:53;;;;;;;;;;;23.10;96.90;;;;;;5062025;28;19908;-53
2022/06/16 13:52:24;;;;;;;;;;;23.10;96.80;;;;;;5057881;28;19916;-53
2022/06/16 13:54:50;;;;;;;;;;;23.10;97.10;;;;;;5075247;28;20060;-54
2022/06/16 13:57:21;;;;;;;;;;;23.10;96.80;;;;;;5075182;28;19948;-52
2022/06/16 13:59:53;;;;;;;;;;;23.10;96.80;;;;;;5075676;28;19915;-53
2022/06/16 14:02:18;;;;;;;;;;;23.10;96.80;;;;;;5057571;28;20256;-52
2022/06/16 14:05:04;;;;;;;;;;;23.10;96.70;;;;;;5075438;28;19909;-54
2022/06/16 14:07:32;;;;;;;;;;;23.10;96.80;;;;;;5075370;28;20007;-54
2022/06/16 14:10:12;;;;;;;;;;;23.10;96.70;;;;;;5075679;28;20297;-53
2022/06/16 14:12:46;;;;;;;;;;;23.10;96.70;;;;;;5075641;28;19909;-54
2022/06/16 14:15:12;;;;;;;;;;;23.10;96.70;;;;;;5075200;28;20282;-52
2022/06/16 14:17:46;;;;;;;;;;;23.10;96.80;;;;;;5075075;28;19951;-54
2022/06/16 14:20:16;;;;;;;;;;;23.10;96.70;;;;;;5057217;28;20266;-53
2022/06/16 14:22:45;;;;;;;;;;;23.10;96.70;;;;;;5075029;28;19912;-55
2022/06/16 14:25:13;;;;;;;;;;;23.10;96.70;;;;;;5057208;28;19908;-55
2022/06/16 14:27:43;;;;;;;;;;;23.10;96.70;;;;;;5074830;28;19916;-51
2022/06/16 14:30:09;;;;;;;;;;;23.10;96.70;;;;;;5074696;28;19908;-53
2022/06/16 14:32:37;;;;;;;;;;;23.10;96.70;;;;;;5056224;28;19908;-53
2022/06/16 14:35:09;;;;;;;;;;;23.10;96.70;;;;;;5074156;28;19916;-53
2022/06/16 14:37:42;;;;;;;;;;;23.10;96.70;;;;;;5074698;28;19909;-53
2022/06/16 14:40:11;;;;;;;;;;;23.10;96.70;;;;;;5074356;28;19915;-53
2022/06/16 14:42:40;;;;;;;;;;;23.10;96.70;;;;;;5074571;28;19909;-53
2022/06/16 14:45:14;;;;;;;;;;;23.10;96.70;;;;;;5074372;28;19916;-53